Depesze METAR lotnisk w Polsce

EPWA EPMO EPKK EPLL EPWR EPKT EPGD EPPO EPRZ EPSC EPLB EPBY EPZG EPSY EPCE EPDA EPDE EPIR EPKS EPLK EPLY EPMB EPMI EPMM EPNA EPOK EPPR EPPW EPRA EPSN EPTM

METAR – format kodowanego raportu o pogodzie używany w meteorologii lotniczej i prognozie pogody. METAR jest akronimem od ang. Meteorological Aerodrome Report. Typowy METAR zawiera informację o temperaturze, ciśnieniu, temperaturze punktu rosy, sile i kierunku wiatru, opadzie, pokrywie chmur, wysokości podstawy chmur, widzialności, lecz może zawierać też inne informacje (np. stan dróg startowych).

Postaw mi kawę na buycoffee.to

Warszawa-Okęcie (EPWA)

METAR = EPWA 311030Z 28014KT 9999 BKN023 03/M01 Q1010 NOSIG

STACJA........... EPWA - Warszawa-Okęcie (WAW)
POMIAR........... Tue Jan 31, 11:30 CET
WIATR............ zachodni (W) z prędkością 26 km/h
WIDZIALNOŚĆ...... powyżej 10 kilometrów
CHMURY........... zachmurzenie średnie (5/8-7/8)
TEMPERATURA...... 3°C
T.PUNKTU ROSY.... -1°C
WILGOTNOŚĆ....... 75%
T.ODCZUWALNA..... -2°C
CIŚNIENIE........ 1010 hPa
CIŚN.BEZWZGL..... 996 hPa
PROGNOZA......... bez nagłych zmian w ciągu 2h

Sprawdź też: Prognoza pogody Warszawa


Warszawa-Modlin (EPMO)

METAR = EPMO 311030Z 26016KT 9999 BKN023 04/00 Q1010 =

STACJA........... EPMO - Warszawa-Modlin (WMI)
POMIAR........... Tue Jan 31, 11:30 CET
WIATR............ zachodni (W) z prędkością 30 km/h
WIDZIALNOŚĆ...... powyżej 10 kilometrów
CHMURY........... zachmurzenie średnie (5/8-7/8)
TEMPERATURA...... 4°C
T.PUNKTU ROSY.... 0°C
WILGOTNOŚĆ....... 75%
T.ODCZUWALNA..... -1°C
CIŚNIENIE........ 1010 hPa
CIŚN.BEZWZGL..... 997 hPa

Sprawdź też: Prognoza pogody Nowy Dwór Mazowiecki


Kraków-Balice (EPKK)

METAR = EPKK 311030Z 26013KT 9999 SCT013TCU BKN019 02/M01 Q1015

STACJA........... EPKK - Kraków-Balice (KRK)
POMIAR........... Tue Jan 31, 11:30 CET
WIATR............ zachodni (W) z prędkością 24 km/h
WIDZIALNOŚĆ...... powyżej 10 kilometrów
CHMURY........... zachmurzenie średnie (5/8-7/8)
TEMPERATURA...... 2°C
T.PUNKTU ROSY.... -1°C
WILGOTNOŚĆ....... 81%
T.ODCZUWALNA..... -3°C
CIŚNIENIE........ 1015 hPa
CIŚN.BEZWZGL..... 985 hPa

Sprawdź też: Prognoza pogody Kraków


Łódź-Lublinek (EPLL)

METAR = EPLL 311030Z 27014KT 9999 SCT023 BKN028 02/M03 Q1013

STACJA........... EPLL - Łódź-Lublinek (LCJ)
POMIAR........... Tue Jan 31, 11:30 CET
WIATR............ zachodni (W) z prędkością 26 km/h
WIDZIALNOŚĆ...... powyżej 10 kilometrów
CHMURY........... zachmurzenie średnie (5/8-7/8)
TEMPERATURA...... 2°C
T.PUNKTU ROSY.... -3°C
WILGOTNOŚĆ....... 70%
T.ODCZUWALNA..... -3°C
CIŚNIENIE........ 1013 hPa
CIŚN.BEZWZGL..... 990 hPa

Sprawdź też: Prognoza pogody Łódź


Wrocław-Strachowice (EPWR)

METAR = EPWR 311030Z 30016KT 9999 FEW025TCU BKN045 04/00 Q1016

STACJA........... EPWR - Wrocław-Strachowice (WRO)
POMIAR........... Tue Jan 31, 11:30 CET
WIATR............ zachodni północno-zachodni (WNW) z prędkością 30 km/h
WIDZIALNOŚĆ...... powyżej 10 kilometrów
CHMURY........... zachmurzenie średnie (5/8-7/8)
TEMPERATURA...... 4°C
T.PUNKTU ROSY.... 0°C
WILGOTNOŚĆ....... 75%
T.ODCZUWALNA..... -1°C
CIŚNIENIE........ 1016 hPa
CIŚN.BEZWZGL..... 1001 hPa

Sprawdź też: Prognoza pogody Wrocław


Katowice-Pyrzowice (EPKT)

METAR = EPKT 311030Z 26012KT 9999 -SN FEW015 OVC034 01/M02 Q1015

STACJA........... EPKT - Katowice-Pyrzowice (KTW)
POMIAR........... Tue Jan 31, 11:30 CET
WIATR............ zachodni (W) z prędkością 22 km/h
WIDZIALNOŚĆ...... powyżej 10 kilometrów
WARUNKI.......... słaby: śnieg 
CHMURY........... zachmurzenie całkowite (8/8)
TEMPERATURA...... 1°C
T.PUNKTU ROSY.... -2°C
WILGOTNOŚĆ....... 81%
T.ODCZUWALNA..... -4°C
CIŚNIENIE........ 1015 hPa
CIŚN.BEZWZGL..... 977 hPa

Sprawdź też: Prognoza pogody Katowice


Gdańsk (EPGD)

METAR = EPGD 311030Z 27014KT 9999 SCT023 03/M02 Q1007

STACJA........... EPGD - Gdańsk im. Lecha Wałęsy (GDN)
POMIAR........... Tue Jan 31, 11:30 CET
WIATR............ zachodni (W) z prędkością 26 km/h
WIDZIALNOŚĆ...... powyżej 10 kilometrów
CHMURY........... zachmurzenie małe (3/8-4/8)
TEMPERATURA...... 3°C
T.PUNKTU ROSY.... -2°C
WILGOTNOŚĆ....... 70%
T.ODCZUWALNA..... -2°C
CIŚNIENIE........ 1007 hPa
CIŚN.BEZWZGL..... 989 hPa

Sprawdź też: Prognoza pogody Gdańsk


Poznań-Ławica (EPPO)

METAR = EPPO 311030Z 29015KT 9999 FEW018 SCT034 04/M01 Q1014

STACJA........... EPPO - Poznań-Ławica (POZ)
POMIAR........... Tue Jan 31, 11:30 CET
WIATR............ zachodni północno-zachodni (WNW) z prędkością 28 km/h
WIDZIALNOŚĆ...... powyżej 10 kilometrów
CHMURY........... zachmurzenie małe (3/8-4/8)
TEMPERATURA...... 4°C
T.PUNKTU ROSY.... -1°C
WILGOTNOŚĆ....... 70%
T.ODCZUWALNA..... -1°C
CIŚNIENIE........ 1014 hPa
CIŚN.BEZWZGL..... 1002 hPa

Sprawdź też: Prognoza pogody Poznań


Rzeszów-Jasionka (EPRZ)

METAR = EPRZ 311030Z 28013KT 9999 BKN020 02/M00 Q1012

STACJA........... EPRZ - Rzeszów-Jasionka (RZE)
POMIAR........... Tue Jan 31, 11:30 CET
WIATR............ zachodni (W) z prędkością 24 km/h
WIDZIALNOŚĆ...... powyżej 10 kilometrów
CHMURY........... zachmurzenie średnie (5/8-7/8)
TEMPERATURA...... 2°C
T.PUNKTU ROSY.... 0°C
WILGOTNOŚĆ....... 87%
T.ODCZUWALNA..... -3°C
CIŚNIENIE........ 1012 hPa
CIŚN.BEZWZGL..... 986 hPa

Sprawdź też: Prognoza pogody Rzeszów


Szczecin-Goleniów (EPSC)

METAR = EPSC 311030Z 25011KT 200V270 9999 FEW044 04/01 Q1012

STACJA........... EPSC - Szczecin-Goleniów (SZZ)
POMIAR........... Tue Jan 31, 11:30 CET
WIATR............ zachodni południowo-zachodni (WSW) z prędkością 20 km/h
WIDZIALNOŚĆ...... powyżej 10 kilometrów
CHMURY........... zachmurzenie niewielkie (1/8-2/8)
TEMPERATURA...... 4°C
T.PUNKTU ROSY.... 1°C
WILGOTNOŚĆ....... 81%
T.ODCZUWALNA..... -1°C
CIŚNIENIE........ 1012 hPa
CIŚN.BEZWZGL..... 1006 hPa

Sprawdź też: Prognoza pogody Szczecin


Lublin-Świdnik (EPLB)

METAR = EPLB 311030Z 29013KT 9999 FEW018 BKN044 03/00 Q1010 =

STACJA........... EPLB - Lublin-Świdnik (LUZ)
POMIAR........... Tue Jan 31, 11:30 CET
WIATR............ zachodni północno-zachodni (WNW) z prędkością 24 km/h
WIDZIALNOŚĆ...... powyżej 10 kilometrów
CHMURY........... zachmurzenie średnie (5/8-7/8)
TEMPERATURA...... 3°C
T.PUNKTU ROSY.... 0°C
WILGOTNOŚĆ....... 81%
T.ODCZUWALNA..... -2°C
CIŚNIENIE........ 1010 hPa
CIŚN.BEZWZGL..... 985 hPa

Sprawdź też: Prognoza pogody Lublin


Bydgoszcz-Szwederowo (EPBY)

METAR = EPBY 311030Z 28019G29KT 9999 SCT027 BKN030 04/M02 Q1011=

STACJA........... EPBY - Bydgoszcz-Szwederowo (BZG)
POMIAR........... Tue Jan 31, 11:30 CET
WIATR............ zachodni (W) z prędkością 35 km/h, w porywach do 54 km/h
WIDZIALNOŚĆ...... powyżej 10 kilometrów
CHMURY........... zachmurzenie średnie (5/8-7/8)
TEMPERATURA...... 4°C
T.PUNKTU ROSY.... -2°C
WILGOTNOŚĆ....... 65%
T.ODCZUWALNA..... -2°C
CIŚNIENIE........ 1011 hPa
CIŚN.BEZWZGL..... 1002 hPa

Sprawdź też: Prognoza pogody Bydgoszcz


Zielona Góra-Babimost (EPZG)

METAR = EPZG 311030Z 26013KT 9999 SCT020 OVC046 04/02 Q1015 =

STACJA........... EPZG - Zielona Góra-Babimost (IEG)
POMIAR........... Tue Jan 31, 11:30 CET
WIATR............ zachodni (W) z prędkością 24 km/h
WIDZIALNOŚĆ...... powyżej 10 kilometrów
CHMURY........... zachmurzenie całkowite (8/8)
TEMPERATURA...... 4°C
T.PUNKTU ROSY.... 2°C
WILGOTNOŚĆ....... 87%
T.ODCZUWALNA..... -1°C
CIŚNIENIE........ 1015 hPa
CIŚN.BEZWZGL..... 1008 hPa

Sprawdź też: Prognoza pogody Zielona Góra


Szymany Olsztyn-Mazury (EPSY)

METAR = EPSY 311030Z 29013G28KT 250V340 9999 SCT025 03/M02 Q1007=

STACJA........... EPSY - Olsztyn-Mazury (SZY)
POMIAR........... Tue Jan 31, 11:30 CET
WIATR............ zachodni północno-zachodni (WNW) z prędkością 24 km/h, w porywach do 52 km/h
WIDZIALNOŚĆ...... powyżej 10 kilometrów
CHMURY........... zachmurzenie małe (3/8-4/8)
TEMPERATURA...... 3°C
T.PUNKTU ROSY.... -2°C
WILGOTNOŚĆ....... 70%
T.ODCZUWALNA..... -2°C
CIŚNIENIE........ 1007 hPa
CIŚN.BEZWZGL..... 990 hPa

Sprawdź też: Prognoza pogody Olsztyn


Cewice (EPCE)

METAR = 

STACJA........... EPCE - Cewice
POMIAR........... Thu Jan 1, 02:00 CET
BŁĄD............. Dane niedostępne.

Darłowo (EPDA)

METAR = 

STACJA........... EPDA - Darłowo
POMIAR........... Thu Jan 1, 02:00 CET
BŁĄD............. Dane niedostępne.

Dęblin (EPDE)

METAR = 

STACJA........... EPDE - Dęblin
POMIAR........... Thu Jan 1, 02:00 CET
BŁĄD............. Dane niedostępne.

Inowrocław-Latkowo (EPIR)

METAR = 

STACJA........... EPIR - Inowrocław-Latkowo
POMIAR........... Thu Jan 1, 02:00 CET
BŁĄD............. Dane niedostępne.

Poznań-Krzesiny (EPKS)

METAR = 

STACJA........... EPKS - Poznań-Krzesiny
POMIAR........... Thu Jan 1, 02:00 CET
BŁĄD............. Dane niedostępne.

Łask (EPLK)

METAR = 

STACJA........... EPLK - Łask
POMIAR........... Thu Jan 1, 02:00 CET
BŁĄD............. Dane niedostępne.

Łęczyca (EPLY)

METAR = 

STACJA........... EPLY - Łęczyca
POMIAR........... Thu Jan 1, 02:00 CET
BŁĄD............. Dane niedostępne.

Malbork (EPMB)

METAR = 

STACJA........... EPMB - Malbork
POMIAR........... Thu Jan 1, 02:00 CET
BŁĄD............. Dane niedostępne.

Mirosławiec (EPMI)

METAR = 

STACJA........... EPMI - Mirosławiec
POMIAR........... Thu Jan 1, 02:00 CET
BŁĄD............. Dane niedostępne.

Mińsk Mazowiecki (EPMM)

METAR = 

STACJA........... EPMM - Mińsk Mazowiecki
POMIAR........... Thu Jan 1, 02:00 CET
BŁĄD............. Dane niedostępne.

Nadarzyce (EPNA)

METAR = 

STACJA........... EPNA - Nadarzyce
POMIAR........... Thu Jan 1, 02:00 CET
BŁĄD............. Dane niedostępne.

Gdynia-Kosakowo (EPOK)

METAR = 

STACJA........... EPOK - Gdynia-Kosakowo
POMIAR........... Thu Jan 1, 02:00 CET
BŁĄD............. Dane niedostępne.

Pruszcz Gdański (EPPR)

METAR = 

STACJA........... EPPR - Pruszcz Gdański
POMIAR........... Thu Jan 1, 02:00 CET
BŁĄD............. Dane niedostępne.

Powidz (EPPW)

METAR = 

STACJA........... EPPW - Powidz
POMIAR........... Thu Jan 1, 02:00 CET
BŁĄD............. Dane niedostępne.

Radom-Sadków (EPRA)

METAR = 

STACJA........... EPRA - Radom-Sadków
POMIAR........... Thu Jan 1, 02:00 CET
BŁĄD............. Dane niedostępne.

Świdwin (EPSN)

METAR = 

STACJA........... EPSN - Świdwin
POMIAR........... Thu Jan 1, 02:00 CET
BŁĄD............. Dane niedostępne.

Tomaszów Mazowiecki (EPTM)

METAR = 

STACJA........... EPTM - Tomaszów Mazowiecki
POMIAR........... Thu Jan 1, 02:00 CET
BŁĄD............. Dane niedostępne.